WetterOnline ( https://www.wetteronline.de )

Wetter aktuell Bockau

Aktuelles Wetter: Carlsfeld (899m)

6-stündlich | Neueste Meldungen
Ortszeit Temperatur Wetter
Mo, 22.07. 14:00 18.7° C bedeckt
Mo, 22.07. 8:00 16.2° C leichter Regen
Mo, 22.07. 2:00 17.9° C bedeckt
So, 21.07. 20:00 22.4° C bewölkt
So, 21.07. 14:00 25.2° C leicht bewölkt
So, 21.07. 8:00 18.5° C wolkenlos
So, 21.07. 2:00 15.8° C fast wolkenlos
Sa, 20.07. 20:00 19.2° C wolkig
Ortszeit Temperatur Wetter
Mo, 22.07. 19:00 19.3° C leicht bewölkt
Mo, 22.07. 18:40 19.5° C leicht bewölkt
Mo, 22.07. 18:30 20.0° C wolkig
Mo, 22.07. 18:20 20.0° C wolkig
Mo, 22.07. 18:10 20.3° C leicht bewölkt
Mo, 22.07. 18:00 20.0° C leicht bewölkt
Mo, 22.07. 17:50 20.0° C leicht bewölkt
Mo, 22.07. 17:30 19.7° C leicht bewölkt
Mo, 22.07. 17:00 20.3° C leicht bewölkt
Mo, 22.07. 16:30 19.5° C wolkig
Mo, 22.07. 16:00 19.0° C bewölkt
Ortszeit Relative Feuchte Sichtweite
Mo, 22.07. 14:00 69% 50 km
Mo, 22.07. 8:00 96% 6 km
Mo, 22.07. 2:00 83% 45 km
So, 21.07. 20:00 60% 50 km
So, 21.07. 14:00 42% >70 km
So, 21.07. 8:00 71% 45 km
So, 21.07. 2:00 88% 30 km
Sa, 20.07. 20:00 88% 45 km
Ortszeit Relative Feuchte Sichtweite
Mo, 22.07. 19:00 61% 60 km
Mo, 22.07. 18:40 60% -
Mo, 22.07. 18:30 62% 55 km
Mo, 22.07. 18:20 62% -
Mo, 22.07. 18:10 61% -
Mo, 22.07. 18:00 61% 65 km
Mo, 22.07. 17:50 61% -
Mo, 22.07. 17:30 64% 55 km
Mo, 22.07. 17:00 61% 65 km
Mo, 22.07. 16:30 68% >70 km
Mo, 22.07. 16:00 67% 35 km
Ortszeit Niederschlagsmenge Niederschlagsart
Mo, 22.07. 14:00 0.1 l/m2 in 6 Std. Regen
Mo, 22.07. 8:00 0.2 l/m2 in 12 Std. Regen
Mo, 22.07. 2:00 0.1 l/m2 in 6 Std. Regen
So, 21.07. 20:00 0.0 l/m2 in 12 Std. -
So, 21.07. 14:00 0.0 l/m2 in 6 Std. -
So, 21.07. 8:00 0.0 l/m2 in 12 Std. -
So, 21.07. 2:00 0.0 l/m2 in 6 Std. -
Sa, 20.07. 20:00 10 l/m2 in 12 Std. Regen
Ortszeit Niederschlagsmenge Niederschlagsart
Mo, 22.07. 19:00 0.0 l/m2 in 1 Std. -
Mo, 22.07. 18:40 keine Meldung -
Mo, 22.07. 18:30 0.0 l/m2 in 30 Min -
Mo, 22.07. 18:20 keine Meldung -
Mo, 22.07. 18:10 keine Meldung -
Mo, 22.07. 18:00 0.0 l/m2 in 1 Std. -
Mo, 22.07. 17:50 keine Meldung -
Mo, 22.07. 17:30 0.0 l/m2 in 30 Min -
Mo, 22.07. 17:00 0.0 l/m2 in 1 Std. -
Mo, 22.07. 16:30 0.0 l/m2 in 30 Min -
Mo, 22.07. 16:00 0.0 l/m2 in 1 Std. -
Ortszeit Stärke Spitze Richtung
km/h Bft. km/h Grad Sektor
Mo, 22.07. 14:00 7 2 25 320° NW
Mo, 22.07. 8:00 4 1 18 340° N
Mo, 22.07. 2:00 6 1 26 240° SW
So, 21.07. 20:00 4 1 29 280° W
So, 21.07. 14:00 11 2 25 260° W
So, 21.07. 8:00 7 2 18 230° SW
So, 21.07. 2:00 9 2 19 230° SW
Sa, 20.07. 20:00 6 1 30 220° SW
Ortszeit Stärke Spitze Richtung
km/h Bft. km/h Grad Sektor
Mo, 22.07. 19:00 7 2 22 10° N
Mo, 22.07. 18:40 7 2 - 360° N
Mo, 22.07. 18:30 7 2 18 310° NW
Mo, 22.07. 18:20 7 2 - 310° NW
Mo, 22.07. 18:10 7 2 - 320° NW
Mo, 22.07. 18:00 7 2 22 330° NW
Mo, 22.07. 17:50 7 2 - 330° NW
Mo, 22.07. 17:30 6 1 22 350° N
Mo, 22.07. 17:00 11 2 25 290° W
Mo, 22.07. 16:30 7 2 22 310° NW
Mo, 22.07. 16:00 9 2 26 290° W
Ortszeit Untergrenze Bedeckung Gattung
total tief tief mittel hoch
Mo, 22.07. 14:00 660 m 8/8 8/8 - - -
Mo, 22.07. 8:00 60 m 8/8 8/8 - - -
Mo, 22.07. 2:00 840 m 8/8 8/8 - - -
So, 21.07. 20:00 3600 m 8/8 7/8 - - -
So, 21.07. 14:00 7200 m 3/8 0/8 - - -
So, 21.07. 8:00 - 0/8 0/8 - - -
So, 21.07. 2:00 9000 m 2/8 0/8 - - -
Sa, 20.07. 20:00 4200 m 5/8 5/8 - - -
Ortszeit Bedeckungsgrad in Achtel und Wolkenuntergrenze
Mo, 22.07. 19:00 3(1140m) 4(1410m)
Mo, 22.07. 18:40 2
Mo, 22.07. 18:30 4(1020m) 5(1500m)
Mo, 22.07. 18:20 4(1020m) 5(1500m)
Mo, 22.07. 18:10 4
Mo, 22.07. 18:00 1(1290m)
Mo, 22.07. 17:50 1(1290m) 2(1470m)
Mo, 22.07. 17:30 1(870m) 3(1380m)
Mo, 22.07. 17:00 2(720m) 3(900m)
Mo, 22.07. 16:30 1(750m) 3(930m) 5(1230m)
Mo, 22.07. 16:00 6(810m) 7(990m)
Ortszeit Stationsdruck (hPa) Tendenz (hPa in 3 Std.)
Mo, 22.07. 14:00 915 + 0,9
Mo, 22.07. 8:00 913 + 1,4
Mo, 22.07. 2:00 912 + 0,9
So, 21.07. 20:00 910 + 0,5
So, 21.07. 14:00 910 - 0,2
So, 21.07. 8:00 910 + 0,4
So, 21.07. 2:00 910 0,0
Sa, 20.07. 20:00 910 - 0,4
Ortszeit Stationsdruck (hPa) Tendenz (hPa in 3 Std.)
Mo, 22.07. 19:00 916 + 0,5
Mo, 22.07. 18:40 916 keine Meldung
Mo, 22.07. 18:30 916 + 0,4
Mo, 22.07. 18:20 916 keine Meldung
Mo, 22.07. 18:10 916 keine Meldung
Mo, 22.07. 18:00 916 + 0,2
Mo, 22.07. 17:50 916 keine Meldung
Mo, 22.07. 17:30 916 + 0,5
Mo, 22.07. 17:00 916 + 0,5
Mo, 22.07. 16:30 916 + 0,5
Mo, 22.07. 16:00 916 + 0,8
Ortszeit Schneehöhe (cm)
Mo, 22.07. 14:00 0
Mo, 22.07. 8:00 0
Mo, 22.07. 2:00 0
So, 21.07. 20:00 0
So, 21.07. 14:00 0
So, 21.07. 8:00 0
So, 21.07. 2:00 0
Sa, 20.07. 20:00 0
Ortszeit Schneehöhe (cm)
Mo, 22.07. 19:00 0
Mo, 22.07. 18:40 -
Mo, 22.07. 18:30 0
Mo, 22.07. 18:20 0
Mo, 22.07. 18:10 -
Mo, 22.07. 18:00 0
Mo, 22.07. 17:50 0
Mo, 22.07. 17:30 0
Mo, 22.07. 17:00 0
Mo, 22.07. 16:30 0
Mo, 22.07. 16:00 0
Link zu dieser Seite / Seite empfehlen

Das Wetter in ...